Time;durP1;ratioP1;P1;durP2;ratioP2;P2;SDS_P1;SDS_P2;PMS_P1;PMS_P2;Temp;Humidity;BMP_temperature;BMP_pressure;BME280_temperature;BME280_humidity;BME280_pressure;Samples;Min_cycle;Max_cycle;Signal;HPM_P1;HPM_P2
2022/12/23 00:10:20;;;;;;;171.10;38.27;;;7.10;99.90;;;;;;6186786;23;20128;-86
2022/12/23 00:28:40;;;;;;;;;;;;;;;;;;;;;
2022/12/23 01:08:14;;;;;;;134.40;26.73;;;8.20;99.90;;;;;;5987587;24;20031;-87
2022/12/23 01:25:44;;;;;;;106.50;25.33;;;7.70;99.90;;;;;;6167901;23;20036;-86
2022/12/23 01:28:46;;;;;;;112.50;25.83;;;6.90;99.90;;;;;;6193107;23;20024;-86
2022/12/23 01:31:25;;;;;;;117.77;26.80;;;7.20;99.90;;;;;;6072091;23;20049;-86
2022/12/23 02:11:12;;;;;;;109.90;28.17;;;7.80;99.90;;;;;;6189472;23;20020;-86
2022/12/23 02:23:49;;;;;;;106.83;26.97;;;6.90;99.90;;;;;;6163039;23;20021;-86
2022/12/23 02:27:36;;;;;;;96.88;25.85;;;6.90;99.90;;;;;;6120812;23;20027;-86
2022/12/23 02:37:37;;;;;;;;;;;;;;;;;;;;;
2022/12/23 02:44:01;;;;;;;105.97;26.80;;;7.40;99.90;;;;;;6118539;23;20025;-86
2022/12/23 02:46:58;;;;;;;111.03;27.97;;;7.50;99.90;;;;;;6129941;23;20014;-86
2022/12/23 02:49:50;;;;;;;101.93;28.27;;;7.20;99.90;;;;;;6128611;23;20043;-86
2022/12/23 02:55:27;;;;;;;108.83;29.20;;;8.70;99.90;;;;;;6155746;23;20021;-86
2022/12/23 02:58:00;;;;;;;134.97;30.97;;;7.00;99.90;;;;;;6155609;23;20060;-86
2022/12/23 03:01:05;;;;;;;130.43;28.87;;;7.30;99.90;;;;;;6168665;23;20025;-86
2022/12/23 03:03:47;;;;;;;;;;;6.60;99.90;;;;;;6165766;23;20021;-86
2022/12/23 03:06:20;;;;;;;73.47;23.23;;;8.00;99.90;;;;;;6185162;23;19923;-86
2022/12/23 03:09:02;;;;;;;100.05;25.73;;;7.80;99.90;;;;;;6187602;23;20055;-86
2022/12/23 03:12:01;;;;;;;89.17;23.83;;;7.20;99.90;;;;;;6189693;23;20511;-86
2022/12/23 03:14:56;;;;;;;91.60;24.13;;;6.50;99.90;;;;;;6188684;23;20020;-86
2022/12/23 03:18:06;;;;;;;94.77;23.90;;;7.10;99.90;;;;;;6188477;23;20147;-86
2022/12/23 03:27:34;;;;;;;87.63;21.67;;;7.30;99.90;;;;;;6158809;23;20030;-87
2022/12/23 03:30:53;;;;;;;80.43;22.13;;;7.30;99.90;;;;;;6188887;23;20012;-86
2022/12/23 03:36:59;;;;;;;76.13;22.00;;;7.40;99.90;;;;;;6124043;23;20101;-86
2022/12/23 03:43:21;;;;;;;83.63;21.43;;;7.20;99.90;;;;;;6129598;23;20021;-86
2022/12/23 03:46:21;;;;;;;83.60;22.30;;;6.90;99.90;;;;;;6128774;23;20025;-85
2022/12/23 03:49:52;;;;;;;79.85;20.77;;;7.00;99.90;;;;;;6037246;23;20026;-86
2022/12/23 03:53:10;;;;;;;81.33;21.30;;;6.90;99.90;;;;;;5947768;24;20024;-86
2022/12/23 03:56:00;;;;;;;73.53;21.70;;;7.70;99.90;;;;;;6024695;23;20027;-87
2022/12/23 04:06:01;;;;;;;84.90;21.07;;;7.30;99.90;;;;;;5956492;24;20055;-86
2022/12/23 04:08:40;;;;;;;95.97;22.03;;;7.20;99.90;;;;;;6013583;23;20477;-86
2022/12/23 04:17:51;;;;;;;76.80;19.10;;;7.20;99.90;;;;;;6048952;23;20476;-86
2022/12/23 04:20:42;;;;;;;91.10;19.93;;;7.20;99.90;;;;;;6090857;23;20018;-86
2022/12/23 04:23:11;;;;;;;103.50;20.10;;;7.10;99.90;;;;;;6069693;23;20010;-86
2022/12/23 04:29:25;;;;;;;125.67;21.30;;;7.00;99.90;;;;;;6094157;23;20339;-87
2022/12/23 04:46:22;;;;;;;137.43;21.40;;;7.00;99.90;;;;;;5952806;24;20115;-87
2022/12/23 04:48:56;;;;;;;153.03;22.23;;;6.80;99.90;;;;;;5951088;24;20081;-87
2022/12/23 04:51:27;;;;;;;112.47;21.77;;;6.90;99.90;;;;;;5952045;24;20021;-86
2022/12/23 04:53:53;;;;;;;132.40;21.20;;;6.80;99.90;;;;;;6001174;23;20098;-87
2022/12/23 04:56:40;;;;;;;133.10;21.60;;;8.60;99.90;;;;;;6036048;23;20023;-86
2022/12/23 04:59:40;;;;;;;114.67;22.23;;;6.30;99.90;;;;;;6033057;23;20023;-87
2022/12/23 05:08:52;;;;;;;129.10;20.57;;;6.80;99.90;;;;;;5927297;24;20092;-86
2022/12/23 05:14:33;;;;;;;107.27;20.43;;;7.50;99.90;;;;;;5928900;24;20078;-86
2022/12/23 05:20:17;;;;;;;122.57;20.33;;;6.90;99.90;;;;;;6177688;23;20407;-86
2022/12/23 05:22:51;;;;;;;122.17;19.37;;;5.80;99.90;;;;;;6157598;23;20017;-87
2022/12/23 05:25:47;;;;;;;168.48;22.52;;;8.20;99.90;;;;;;6156834;23;20518;-86
2022/12/23 05:28:46;;;;;;;;;;;;;;;;;;;;;
2022/12/23 05:32:06;;;;;;;186.77;23.37;;;7.10;99.90;;;;;;5873348;24;20100;-86
2022/12/23 05:35:06;;;;;;;310.33;27.47;;;6.90;99.90;;;;;;5892004;24;20090;-86
2022/12/23 05:44:06;;;;;;;346.30;28.93;;;7.00;99.90;;;;;;6215869;23;20020;-86
2022/12/23 05:47:04;;;;;;;386.13;31.83;;;6.00;99.90;;;;;;6215059;23;20032;-86
2022/12/23 05:49:36;;;;;;;491.37;37.00;;;7.90;99.90;;;;;;6100419;23;20022;-87
2022/12/23 05:59:24;;;;;;;359.70;29.20;;;6.80;99.90;;;;;;6128519;23;19917;-86
2022/12/23 06:01:59;;;;;;;340.77;29.23;;;6.80;99.90;;;;;;6100510;23;20025;-86
2022/12/23 06:07:27;;;;;;;306.57;25.97;;;7.30;99.90;;;;;;6214352;23;20021;-86
2022/12/23 06:10:27;;;;;;;282.47;25.90;;;5.90;99.90;;;;;;6208270;23;20016;-86
2022/12/23 06:13:18;;;;;;;276.00;24.53;;;6.60;99.90;;;;;;6106844;23;20457;-86
2022/12/23 06:15:44;;;;;;;252.63;25.23;;;7.50;99.90;;;;;;6127456;23;20028;-86
2022/12/23 06:18:18;;;;;;;294.50;27.83;;;6.40;99.90;;;;;;6212512;23;20008;-86
2022/12/23 06:21:30;;;;;;;298.90;27.53;;;6.10;99.90;;;;;;6217335;23;20056;-86
2022/12/23 06:24:29;;;;;;;229.57;24.00;;;7.00;99.90;;;;;;6054276;23;20020;-86
2022/12/23 06:27:26;;;;;;;248.55;24.05;;;8.60;99.90;;;;;;6037592;23;20024;-86
2022/12/23 06:30:30;;;;;;;306.93;26.00;;;7.70;99.90;;;;;;5934723;23;20051;-86
2022/12/23 06:33:31;;;;;;;278.83;23.70;;;7.00;99.90;;;;;;5929380;24;20113;-86
2022/12/23 06:43:10;;;;;;;322.93;25.90;;;8.10;99.90;;;;;;5764578;24;20073;-87
2022/12/23 06:45:39;;;;;;;366.43;27.83;;;7.00;99.90;;;;;;5950671;23;20048;-87
2022/12/23 06:48:56;;;;;;;329.43;27.03;;;7.90;99.90;;;;;;6157828;23;20103;-86
2022/12/23 06:58:42;;;;;;;271.97;25.33;;;6.80;99.90;;;;;;6134445;23;20017;-86
2022/12/23 07:01:14;;;;;;;223.47;23.47;;;7.90;99.90;;;;;;6131103;23;20093;-86
2022/12/23 07:06:28;;;;;;;228.97;24.13;;;8.40;99.90;;;;;;6129065;23;20022;-86
2022/12/23 07:09:03;;;;;;;201.83;31.10;;;6.20;99.90;;;;;;6155764;23;20013;-86
2022/12/23 07:11:34;;;;;;;195.57;50.40;;;7.30;99.90;;;;;;6129887;23;20165;-87
2022/12/23 07:14:41;;;;;;;215.63;45.00;;;6.90;99.90;;;;;;6129495;23;20411;-87
2022/12/23 07:17:30;;;;;;;157.03;38.23;;;6.20;99.90;;;;;;6087959;23;20021;-87
2022/12/23 07:28:12;;;;;;;174.53;20.43;;;6.80;99.90;;;;;;6043558;23;20037;-88
2022/12/23 07:31:07;;;;;;;196.75;53.47;;;7.10;99.90;;;;;;6020651;23;20031;-86
2022/12/23 07:33:36;;;;;;;233.13;33.37;;;6.50;99.90;;;;;;6124560;23;20058;-83
2022/12/23 07:36:16;;;;;;;271.03;25.70;;;6.30;99.90;;;;;;6129343;23;20026;-83
2022/12/23 07:38:42;;;;;;;296.80;26.20;;;6.60;99.90;;;;;;6133351;23;20013;-83
2022/12/23 07:41:08;;;;;;;260.93;24.40;;;8.10;99.90;;;;;;6129411;23;20024;-82
2022/12/23 07:43:33;;;;;;;258.40;25.00;;;6.70;99.90;;;;;;6153904;23;20017;-82
2022/12/23 07:46:05;;;;;;;231.33;34.23;;;8.30;99.90;;;;;;6155697;23;20513;-82
2022/12/23 07:48:31;;;;;;;203.17;31.40;;;6.50;99.90;;;;;;6185155;23;20017;-83
2022/12/23 07:51:01;;;;;;;227.33;28.37;;;6.70;99.90;;;;;;6157786;23;20031;-83
2022/12/23 07:53:27;;;;;;;265.63;116.17;;;6.80;99.90;;;;;;6184947;23;20009;-82
2022/12/23 07:55:52;;;;;;;157.77;21.83;;;6.70;99.90;;;;;;6157759;23;20430;-83
2022/12/23 07:58:18;;;;;;;227.53;48.97;;;6.70;99.90;;;;;;6183642;23;20021;-82
2022/12/23 08:00:44;;;;;;;216.70;24.83;;;6.70;99.90;;;;;;6159344;23;20037;-82
2022/12/23 08:03:10;;;;;;;248.57;24.77;;;6.70;99.90;;;;;;6159960;23;20083;-82
2022/12/23 08:05:57;;;;;;;253.77;27.50;;;6.70;99.90;;;;;;6184638;23;20045;-82
2022/12/23 08:08:22;;;;;;;291.23;35.17;;;6.70;99.90;;;;;;6158406;23;20444;-81
2022/12/23 08:10:48;;;;;;;269.60;26.37;;;8.00;99.90;;;;;;6185166;23;20080;-82
2022/12/23 08:13:13;;;;;;;260.47;24.53;;;6.70;99.90;;;;;;6184336;23;20009;-81
2022/12/23 08:15:45;;;;;;;212.03;23.90;;;6.70;99.90;;;;;;6158424;23;20013;-82
2022/12/23 08:18:14;;;;;;;394.13;28.40;;;6.80;99.90;;;;;;6158344;23;20055;-81
2022/12/23 08:20:42;;;;;;;434.23;31.17;;;6.40;99.90;;;;;;6157625;23;20013;-82
2022/12/23 08:23:08;;;;;;;427.87;30.53;;;7.80;99.90;;;;;;6158255;23;20464;-82
2022/12/23 08:25:33;;;;;;;441.90;32.53;;;8.10;99.90;;;;;;6157793;23;20013;-83
2022/12/23 08:28:08;;;;;;;358.40;30.20;;;6.70;99.90;;;;;;6184889;23;20048;-82
2022/12/23 08:30:36;;;;;;;245.07;24.37;;;6.90;99.90;;;;;;6185200;23;20040;-84
2022/12/23 08:33:20;;;;;;;231.63;22.60;;;6.50;99.90;;;;;;6183789;23;20021;-83
2022/12/23 08:35:53;;;;;;;190.45;22.30;;;6.70;99.90;;;;;;6156918;23;20046;-83
2022/12/23 08:38:34;;;;;;;148.27;20.63;;;7.10;99.90;;;;;;6157420;23;20024;-82
2022/12/23 08:41:18;;;;;;;255.10;22.83;;;5.70;99.90;;;;;;6156523;23;20075;-82
2022/12/23 08:43:44;;;;;;;191.90;22.30;;;6.70;99.90;;;;;;6157367;23;20009;-82
2022/12/23 08:46:22;;;;;;;204.07;23.07;;;8.50;99.90;;;;;;6182520;23;20145;-82
2022/12/23 08:48:52;;;;;;;204.80;22.97;;;7.20;99.90;;;;;;6153875;23;20018;-82
2022/12/23 08:51:27;;;;;;;159.57;22.10;;;6.60;99.90;;;;;;6153847;23;20009;-82
2022/12/23 08:54:03;;;;;;;242.77;26.93;;;6.70;99.90;;;;;;6127193;23;20399;-82
2022/12/23 08:56:41;;;;;;;248.63;26.77;;;6.40;99.90;;;;;;6154155;23;20017;-82
2022/12/23 08:59:15;;;;;;;227.87;23.93;;;7.00;99.90;;;;;;6148054;23;20018;-82
2022/12/23 09:01:58;;;;;;;186.52;22.98;;;8.40;99.90;;;;;;6127320;23;20009;-83
2022/12/23 09:04:32;;;;;;;126.40;19.27;;;6.10;99.90;;;;;;6128034;23;20018;-83
2022/12/23 09:07:04;;;;;;;173.03;20.83;;;5.90;99.90;;;;;;6129321;23;20018;-82
2022/12/23 09:09:37;;;;;;;128.40;18.13;;;8.40;99.90;;;;;;6156195;23;20014;-83
2022/12/23 09:12:14;;;;;;;127.63;19.03;;;7.90;99.90;;;;;;6157118;23;20026;-83
2022/12/23 09:14:46;;;;;;;107.13;18.27;;;8.00;99.90;;;;;;6156115;23;20017;-83
2022/12/23 09:17:27;;;;;;;77.63;16.50;;;6.00;99.90;;;;;;6129955;23;20320;-83
2022/12/23 09:20:05;;;;;;;91.57;16.53;;;7.50;99.90;;;;;;6130244;23;20018;-83
2022/12/23 09:22:46;;;;;;;77.27;15.83;;;6.80;99.90;;;;;;6156051;23;20023;-83
2022/12/23 09:25:20;;;;;;;77.30;15.70;;;6.50;99.90;;;;;;6130175;23;20053;-83
2022/12/23 09:27:49;;;;;;;99.03;16.90;;;6.90;99.90;;;;;;6160129;23;20123;-83
2022/12/23 09:30:31;;;;;;;92.80;17.63;;;6.40;99.90;;;;;;6157112;23;20021;-83
2022/12/23 09:33:06;;;;;;;55.60;14.90;;;6.90;99.90;;;;;;6130092;23;20013;-82
2022/12/23 09:35:47;;;;;;;69.20;15.53;;;5.70;99.90;;;;;;6132203;23;20073;-83
2022/12/23 09:38:19;;;;;;;68.70;16.60;;;8.60;99.90;;;;;;6131974;23;20018;-84
2022/12/23 09:40:47;;;;;;;102.30;18.80;;;7.00;99.90;;;;;;6130276;23;20067;-83
2022/12/23 09:43:25;;;;;;;85.20;21.27;;;6.60;99.90;;;;;;6128972;23;20013;-83
2022/12/23 09:46:20;;;;;;;72.50;17.53;;;8.10;99.90;;;;;;6156818;23;20014;-85
2022/12/23 09:48:54;;;;;;;;;;;7.00;99.90;;;;;;6131074;23;20024;-83
2022/12/23 09:51:22;;;;;;;87.43;20.43;;;7.20;99.90;;;;;;6154993;23;19916;-83
2022/12/23 09:54:06;;;;;;;80.30;16.57;;;7.10;99.90;;;;;;6130813;23;20049;-83
2022/12/23 09:56:53;;;;;;;68.03;15.93;;;7.10;99.90;;;;;;6158198;23;20029;-83
2022/12/23 09:59:43;;;;;;;75.60;15.77;;;7.10;99.90;;;;;;6134326;23;20406;-83
2022/12/23 10:02:30;;;;;;;59.97;16.20;;;7.10;99.90;;;;;;6156672;23;20036;-83
2022/12/23 10:05:20;;;;;;;61.43;15.80;;;7.20;99.90;;;;;;6155752;23;20013;-83
2022/12/23 10:08:10;;;;;;;85.90;17.03;;;7.20;99.90;;;;;;6179540;23;20078;-83
2022/12/23 10:10:47;;;;;;;72.77;16.77;;;7.30;99.90;;;;;;6189623;23;20341;-83
2022/12/23 10:13:26;;;;;;;97.47;19.13;;;6.70;99.90;;;;;;6188685;23;20389;-82
2022/12/23 10:16:00;;;;;;;66.33;17.03;;;7.30;99.90;;;;;;6163522;23;20016;-83
2022/12/23 10:18:41;;;;;;;75.78;17.05;;;8.70;99.90;;;;;;6215005;23;20035;-83
2022/12/23 10:21:15;;;;;;;92.57;17.70;;;7.20;99.90;;;;;;6189910;23;20019;-84
2022/12/23 10:23:46;;;;;;;80.67;17.30;;;7.30;99.90;;;;;;6216460;23;20067;-83
2022/12/23 10:26:28;;;;;;;83.47;17.30;;;8.40;99.90;;;;;;6181738;23;20333;-83
2022/12/23 10:29:07;;;;;;;86.93;19.20;;;7.40;99.90;;;;;;6189966;23;20012;-84
2022/12/23 10:31:47;;;;;;;83.77;19.53;;;7.40;99.90;;;;;;6186438;23;20013;-84
2022/12/23 10:34:23;;;;;;;109.07;19.30;;;7.40;99.90;;;;;;6187663;23;20099;-84
2022/12/23 10:37:06;;;;;;;61.60;16.10;;;7.40;99.90;;;;;;6214992;23;20511;-84
2022/12/23 10:40:07;;;;;;;92.93;17.90;;;7.40;99.90;;;;;;6187582;23;20023;-84
2022/12/23 10:43:17;;;;;;;84.60;16.90;;;7.40;99.90;;;;;;6168205;23;20103;-84
2022/12/23 10:45:55;;;;;;;77.00;17.93;;;7.40;99.90;;;;;;6134313;23;20381;-84
2022/12/23 10:48:36;;;;;;;95.87;17.13;;;7.40;99.90;;;;;;6202637;23;20012;-84
2022/12/23 10:51:20;;;;;;;102.63;17.30;;;7.40;99.90;;;;;;6188934;23;20027;-84
2022/12/23 10:54:03;;;;;;;73.10;16.60;;;7.40;99.90;;;;;;6214650;23;20042;-84
2022/12/23 10:56:29;;;;;;;70.55;15.65;;;7.40;99.90;;;;;;6188673;23;20017;-84
2022/12/23 10:58:58;;;;;;;61.17;15.48;;;7.50;99.90;;;;;;6188519;23;20387;-84
2022/12/23 11:01:24;;;;;;;73.93;15.80;;;8.80;99.90;;;;;;6188147;23;20311;-84
2022/12/23 11:04:00;;;;;;;67.53;15.63;;;8.30;99.90;;;;;;6214329;23;20043;-83
2022/12/23 11:06:42;;;;;;;54.57;15.30;;;7.50;99.90;;;;;;6196568;23;20134;-81
2022/12/23 11:09:57;;;;;;;109.80;20.27;;;7.70;99.90;;;;;;6182604;23;20477;-85
2022/12/23 11:12:35;;;;;;;96.85;20.67;;;7.70;99.90;;;;;;6187050;23;20025;-82
2022/12/23 11:15:01;;;;;;;96.13;21.45;;;7.60;99.90;;;;;;6157618;23;20021;-82
2022/12/23 11:17:30;;;;;;;103.80;22.23;;;7.60;99.90;;;;;;6158389;23;20323;-82
2022/12/23 11:20:18;;;;;;;77.47;20.83;;;7.60;99.90;;;;;;6157634;23;20446;-83
2022/12/23 11:23:04;;;;;;;115.80;23.48;;;7.70;99.90;;;;;;6183294;23;20020;-82
2022/12/23 11:25:51;;;;;;;101.57;23.27;;;7.60;99.90;;;;;;6184166;23;20048;-81
2022/12/23 11:28:20;;;;;;;93.97;21.63;;;7.50;99.90;;;;;;6157244;23;20327;-81
2022/12/23 11:30:49;;;;;;;71.82;20.08;;;8.20;99.90;;;;;;6184335;23;20024;-82
2022/12/23 11:33:33;;;;;;;67.63;18.13;;;7.60;99.90;;;;;;6185119;23;20017;-81
2022/12/23 11:36:22;;;;;;;59.13;17.42;;;7.70;99.90;;;;;;6158050;23;20020;-82
2022/12/23 11:39:13;;;;;;;50.20;15.00;;;7.60;99.90;;;;;;6184708;23;20013;-82
2022/12/23 11:41:46;;;;;;;41.20;14.07;;;7.70;99.90;;;;;;6185184;23;20017;-82
2022/12/23 11:44:29;;;;;;;45.67;14.60;;;7.60;99.90;;;;;;6184264;23;20084;-82
2022/12/23 11:46:55;;;;;;;46.28;14.57;;;7.60;99.90;;;;;;6159087;23;20024;-83
2022/12/23 11:49:30;;;;;;;49.30;14.48;;;7.70;99.90;;;;;;6157671;23;20021;-83
2022/12/23 11:52:00;;;;;;;55.10;14.20;;;7.60;99.90;;;;;;6185459;23;20016;-83
2022/12/23 11:54:26;;;;;;;52.20;15.85;;;7.60;99.90;;;;;;6183257;23;20013;-82
2022/12/23 11:56:53;;;;;;;45.03;14.83;;;7.70;99.90;;;;;;6157325;23;20496;-84
2022/12/23 11:59:42;;;;;;;50.58;14.85;;;7.70;99.90;;;;;;6185222;23;20429;-84
2022/12/23 12:02:26;;;;;;;46.00;14.87;;;7.70;99.90;;;;;;6158461;23;20506;-84
2022/12/23 12:05:16;;;;;;;51.00;14.40;;;9.40;99.90;;;;;;6183783;23;20097;-84
2022/12/23 12:07:52;;;;;;;41.30;14.47;;;7.90;99.90;;;;;;6167002;23;20093;-84
2022/12/23 12:11:01;;;;;;;55.63;14.83;;;7.80;99.90;;;;;;6154588;23;20072;-84
2022/12/23 12:13:36;;;;;;;37.47;13.38;;;7.10;99.90;;;;;;6154832;23;20020;-84
2022/12/23 12:16:30;;;;;;;43.55;14.25;;;8.30;99.90;;;;;;6155473;23;20351;-84
2022/12/23 12:19:30;;;;;;;41.97;13.68;;;7.80;99.90;;;;;;6147639;23;20029;-84
2022/12/23 12:22:09;;;;;;;46.63;14.20;;;7.60;99.90;;;;;;6012583;23;20071;-84
2022/12/23 12:24:44;;;;;;;44.83;14.48;;;7.20;99.90;;;;;;6096778;23;20040;-83
2022/12/23 12:27:33;;;;;;;39.50;14.02;;;8.10;99.90;;;;;;6213036;23;20028;-83
2022/12/23 12:30:17;;;;;;;39.78;13.95;;;8.00;99.90;;;;;;6215597;23;20079;-84
2022/12/23 12:32:59;;;;;;;40.08;15.27;;;7.80;99.90;;;;;;6187802;23;20017;-83
2022/12/23 12:35:43;;;;;;;41.80;14.80;;;7.80;99.90;;;;;;6184690;23;20012;-83
2022/12/23 12:38:37;;;;;;;40.28;14.40;;;7.80;99.90;;;;;;6214844;23;20394;-83
2022/12/23 12:41:17;;;;;;;43.88;14.23;;;7.10;99.90;;;;;;6188151;23;20058;-84
2022/12/23 12:47:23;;;;;;;44.63;14.13;;;7.80;99.90;;;;;;6152721;23;20025;-83
2022/12/23 12:50:37;;;;;;;48.85;15.15;;;7.60;99.90;;;;;;6045010;23;20074;-83
2022/12/23 12:53:13;;;;;;;50.13;15.32;;;7.70;99.90;;;;;;6039855;23;20022;-84
2022/12/23 12:55:49;;;;;;;58.60;16.10;;;7.70;99.90;;;;;;6125615;23;20018;-84
2022/12/23 12:58:21;;;;;;;50.78;15.07;;;7.60;99.90;;;;;;6129915;23;20033;-84
2022/12/23 13:01:37;;;;;;;49.17;15.23;;;7.60;99.90;;;;;;6127198;23;20018;-84
2022/12/23 13:04:32;;;;;;;56.00;15.82;;;7.50;99.90;;;;;;6131003;23;20052;-84
2022/12/23 13:07:18;;;;;;;51.13;15.40;;;7.70;99.90;;;;;;6127556;23;20600;-84
2022/12/23 13:10:19;;;;;;;56.75;15.48;;;7.60;99.90;;;;;;6154568;23;20017;-84
2022/12/23 13:13:09;;;;;;;53.97;15.75;;;7.60;99.90;;;;;;6131402;23;20407;-84
2022/12/23 13:16:13;;;;;;;56.10;16.60;;;7.60;99.90;;;;;;6154238;23;20374;-84
2022/12/23 13:18:57;;;;;;;59.08;16.85;;;7.60;99.90;;;;;;6154423;23;20064;-84
2022/12/23 13:21:40;;;;;;;55.28;17.65;;;7.30;99.90;;;;;;6153428;23;20021;-84
2022/12/23 13:24:13;;;;;;;62.72;18.42;;;7.60;99.90;;;;;;6154657;23;20014;-84
2022/12/23 13:26:51;;;;;;;66.68;17.63;;;7.60;99.90;;;;;;6128429;23;20501;-85
2022/12/23 13:29:40;;;;;;;69.17;18.83;;;7.60;99.90;;;;;;6121286;23;20462;-84
2022/12/23 13:32:26;;;;;;;71.70;19.00;;;7.60;99.90;;;;;;6128153;23;20370;-86
2022/12/23 13:35:35;;;;;;;75.05;18.85;;;7.60;99.90;;;;;;6127280;23;20060;-84
2022/12/23 13:38:37;;;;;;;79.07;20.70;;;7.60;99.90;;;;;;6127692;23;20033;-85
2022/12/23 13:41:21;;;;;;;88.20;21.10;;;7.60;99.90;;;;;;6128843;23;20041;-85
2022/12/23 13:44:04;;;;;;;73.28;19.20;;;7.60;99.90;;;;;;6127989;23;20578;-85
2022/12/23 13:46:42;;;;;;;71.57;18.93;;;8.80;99.90;;;;;;6156664;23;20021;-85
2022/12/23 13:49:29;;;;;;;76.77;19.73;;;7.60;99.90;;;;;;6157545;23;20021;-85
2022/12/23 13:51:58;;;;;;;78.68;19.48;;;7.50;99.90;;;;;;6184509;23;20017;-85
2022/12/23 13:54:57;;;;;;;87.93;21.48;;;7.50;99.90;;;;;;6185609;23;20465;-84
2022/12/23 13:57:54;;;;;;;91.07;21.10;;;7.60;99.90;;;;;;6183557;23;20376;-85
2022/12/23 14:00:28;;;;;;;66.60;19.27;;;8.00;99.90;;;;;;6158956;23;20374;-85
2022/12/23 14:02:56;;;;;;;;;;;7.50;99.90;;;;;;6186787;23;20008;-85
2022/12/23 14:05:34;;;;;;;66.57;18.47;;;7.80;99.90;;;;;;6158966;23;19947;-85
2022/12/23 14:08:18;;;;;;;61.70;18.13;;;7.50;99.90;;;;;;6185624;23;20017;-83
2022/12/23 14:11:38;;;;;;;72.72;17.55;;;7.20;99.90;;;;;;6158632;23;20024;-84
2022/12/23 14:14:06;;;;;;;61.80;16.53;;;6.80;99.90;;;;;;6134710;23;20021;-84
2022/12/23 14:16:43;;;;;;;69.25;16.98;;;8.70;99.90;;;;;;6160012;23;20024;-83
2022/12/23 14:19:34;;;;;;;61.60;16.23;;;7.50;99.90;;;;;;6158617;23;20021;-84
2022/12/23 14:22:18;;;;;;;58.33;15.98;;;7.50;99.90;;;;;;6186016;23;20349;-84
2022/12/23 14:25:31;;;;;;;56.95;16.33;;;7.50;99.90;;;;;;6159840;23;20442;-84
2022/12/23 14:28:22;;;;;;;53.83;15.60;;;7.90;99.90;;;;;;6119093;23;20071;-84
2022/12/23 14:30:51;;;;;;;56.70;15.70;;;6.80;99.90;;;;;;6159413;23;20076;-83
2022/12/23 14:33:25;;;;;;;53.97;15.67;;;7.50;99.90;;;;;;6157962;23;20063;-84
2022/12/23 14:36:37;;;;;;;59.35;16.50;;;8.70;99.90;;;;;;6185990;23;20055;-84
2022/12/23 14:39:11;;;;;;;55.77;15.67;;;7.40;99.90;;;;;;6158401;23;20021;-84
2022/12/23 14:41:50;;;;;;;50.47;15.63;;;8.40;99.90;;;;;;6159248;23;20056;-84
2022/12/23 14:44:34;;;;;;;61.87;16.90;;;7.40;99.90;;;;;;6185338;23;20019;-84
2022/12/23 14:47:01;;;;;;;52.10;16.25;;;7.40;99.90;;;;;;6153212;23;20029;-84
2022/12/23 14:49:36;;;;;;;49.80;15.40;;;7.20;99.90;;;;;;6158886;23;20015;-84
2022/12/23 14:52:38;;;;;;;48.83;15.40;;;8.50;99.90;;;;;;6185524;23;20392;-84
2022/12/23 14:55:22;;;;;;;45.90;15.07;;;7.50;99.90;;;;;;6159238;23;20453;-85
2022/12/23 14:57:55;;;;;;;;;;;7.10;99.90;;;;;;6186178;23;20025;-86
2022/12/23 15:00:20;;;;;;;49.07;15.20;;;7.40;99.90;;;;;;6184923;23;20379;-85
2022/12/23 15:02:54;;;;;;;46.77;15.90;;;7.10;99.90;;;;;;6189513;23;20017;-85
2022/12/23 15:05:23;;;;;;;52.60;15.75;;;8.90;99.90;;;;;;6183849;23;20020;-84
2022/12/23 15:07:51;;;;;;;61.57;16.30;;;7.30;99.90;;;;;;6157715;23;20017;-84
2022/12/23 15:10:25;;;;;;;44.22;15.25;;;6.70;99.90;;;;;;6184616;23;20008;-84
2022/12/23 15:12:58;;;;;;;52.87;15.87;;;7.30;99.90;;;;;;6159020;23;20028;-84
2022/12/23 15:15:35;;;;;;;51.03;15.70;;;8.90;99.90;;;;;;6157698;23;20013;-86
2022/12/23 15:18:12;;;;;;;37.10;12.93;;;7.30;99.90;;;;;;6183402;23;20048;-86
2022/12/23 15:24:33;;;;;;;37.87;13.13;;;7.10;99.90;;;;;;6157927;23;20103;-84
2022/12/23 15:27:22;;;;;;;;;;;9.00;99.90;;;;;;6185869;23;20095;-84
2022/12/23 15:30:10;;;;;;;38.90;13.63;;;7.40;99.90;;;;;;6158889;23;20328;-84
2022/12/23 15:32:47;;;;;;;45.87;14.27;;;7.20;99.90;;;;;;6158855;23;20108;-84
2022/12/23 15:35:29;;;;;;;42.97;13.80;;;8.60;99.90;;;;;;6184378;23;20019;-84
2022/12/23 15:38:13;;;;;;;42.27;13.63;;;7.30;99.90;;;;;;6158701;23;20024;-84
2022/12/23 15:41:01;;;;;;;37.78;12.85;;;8.70;99.90;;;;;;6185474;23;20414;-84
2022/12/23 15:43:40;;;;;;;39.30;12.40;;;6.90;99.90;;;;;;6184194;23;20438;-84
2022/12/23 15:46:24;;;;;;;41.03;12.30;;;8.90;99.90;;;;;;6161658;23;20021;-84
2022/12/23 15:49:03;;;;;;;36.40;12.10;;;8.20;99.90;;;;;;6178113;23;20016;-84
2022/12/23 15:51:34;;;;;;;36.87;12.37;;;7.30;99.90;;;;;;6158677;23;20028;-84
2022/12/23 15:54:44;;;;;;;24.37;9.70;;;6.90;99.90;;;;;;6158114;23;20025;-83
2022/12/23 15:57:19;;;;;;;29.17;9.77;;;7.20;99.90;;;;;;6154706;23;20057;-85
2022/12/23 15:59:55;;;;;;;32.17;10.10;;;7.00;99.90;;;;;;6165180;23;20029;-87
2022/12/23 16:02:42;;;;;;;27.43;10.53;;;6.40;99.90;;;;;;6156105;23;20017;-86
2022/12/23 16:05:45;;;;;;;28.73;10.83;;;7.40;99.90;;;;;;6170661;23;20017;-85
2022/12/23 16:08:29;;;;;;;32.13;10.90;;;7.10;99.90;;;;;;6158416;23;20020;-87
2022/12/23 16:11:32;;;;;;;36.10;11.87;;;7.00;99.90;;;;;;6186425;23;20021;-86
2022/12/23 16:14:50;;;;;;;31.70;10.50;;;7.20;99.90;;;;;;6185455;23;20017;-86
2022/12/23 16:17:44;;;;;;;29.70;10.57;;;7.10;99.90;;;;;;6183443;23;20109;-87
2022/12/23 16:20:20;;;;;;;30.87;11.83;;;8.30;99.90;;;;;;6187008;23;20091;-84
2022/12/23 16:22:49;;;;;;;27.13;9.87;;;7.20;99.90;;;;;;6158723;23;20009;-86
2022/12/23 16:25:29;;;;;;;23.30;9.90;;;7.30;99.90;;;;;;6184052;23;20028;-85
2022/12/23 16:28:13;;;;;;;26.27;10.47;;;7.80;99.90;;;;;;6158488;23;20017;-86
2022/12/23 16:34:20;;;;;;;25.83;10.40;;;7.60;99.90;;;;;;6185837;23;20016;-85
2022/12/23 16:36:57;;;;;;;28.03;11.27;;;7.20;99.90;;;;;;6160362;23;20021;-86
2022/12/23 16:39:44;;;;;;;27.47;11.23;;;7.30;99.90;;;;;;6157594;23;20024;-87
2022/12/23 16:45:56;;;;;;;34.17;12.25;;;7.10;99.90;;;;;;6062172;23;20029;-87
2022/12/23 16:48:43;;;;;;;32.90;12.30;;;7.20;99.90;;;;;;6067348;23;20029;-87
2022/12/23 16:52:00;;;;;;;37.27;12.50;;;7.10;99.90;;;;;;6133795;23;20021;-87
2022/12/23 16:55:35;;;;;;;28.77;12.03;;;6.70;99.90;;;;;;6154705;23;20104;-87
2022/12/23 16:58:49;;;;;;;30.33;12.00;;;6.70;99.90;;;;;;6155034;23;20020;-87
2022/12/23 17:01:52;;;;;;;27.55;12.23;;;7.20;99.90;;;;;;6153615;23;20100;-86
2022/12/23 17:08:11;;;;;;;27.70;12.27;;;7.30;99.90;;;;;;6125706;23;19925;-87
2022/12/23 17:10:51;;;;;;;;;;;;;;;;;;;;;
2022/12/23 17:13:38;;;;;;;33.97;13.83;;;7.30;99.90;;;;;;5998217;23;20023;-87
2022/12/23 17:16:37;;;;;;;30.83;13.77;;;9.00;99.90;;;;;;6039055;23;20050;-87
2022/12/23 17:19:31;;;;;;;33.57;13.60;;;7.30;99.90;;;;;;6038927;23;20130;-87
2022/12/23 17:22:12;;;;;;;33.28;13.45;;;6.70;99.90;;;;;;6039191;23;20367;-87
2022/12/23 17:24:51;;;;;;;;;;;;;;;;;;;;;
2022/12/23 17:27:32;;;;;;;21.35;10.90;;;8.50;99.90;;;;;;6087994;23;20448;-87
2022/12/23 17:30:50;;;;;;;23.50;11.00;;;7.20;99.90;;;;;;6155795;23;20045;-86
2022/12/23 17:33:30;;;;;;;27.43;11.93;;;7.40;99.90;;;;;;6130555;23;20029;-86
2022/12/23 17:36:13;;;;;;;31.23;13.13;;;7.80;99.90;;;;;;6157157;23;20187;-88
2022/12/23 17:38:59;;;;;;;30.80;13.17;;;7.30;99.90;;;;;;6155256;23;20068;-86
2022/12/23 17:42:15;;;;;;;;;;;;;;;;;;;;;
2022/12/23 17:45:36;;;;;;;31.20;13.27;;;7.70;99.90;;;;;;6063585;23;20326;-85
2022/12/23 17:49:15;;;;;;;34.60;14.27;;;7.30;99.90;;;;;;6153492;23;20029;-87
2022/12/23 17:52:31;;;;;;;29.43;13.27;;;7.30;99.90;;;;;;6069466;23;20022;-85
2022/12/23 17:55:48;;;;;;;29.47;13.83;;;6.70;99.90;;;;;;6068271;23;20022;-85
2022/12/23 17:58:38;;;;;;;37.73;14.83;;;7.20;99.90;;;;;;6069539;23;20336;-86
2022/12/23 18:01:45;;;;;;;32.97;14.00;;;7.10;99.90;;;;;;6068201;23;20355;-87
2022/12/23 18:04:38;;;;;;;;;;;;;;;;;;;;;
2022/12/23 18:11:40;;;;;;;30.87;13.13;;;7.40;99.90;;;;;;6151769;23;20018;-85
2022/12/23 18:18:34;;;;;;;30.93;13.23;;;7.40;99.90;;;;;;6010319;23;20019;-86
2022/12/23 18:21:35;;;;;;;29.23;13.53;;;7.20;99.90;;;;;;5922895;24;20021;-85
2022/12/23 18:28:00;;;;;;;33.30;13.43;;;7.50;99.90;;;;;;5925171;24;20056;-86
2022/12/23 18:38:17;;;;;;;36.13;13.57;;;6.40;99.90;;;;;;6184812;23;20051;-87
2022/12/23 18:41:17;;;;;;;33.92;13.60;;;8.60;99.90;;;;;;6190109;23;20020;-85
2022/12/23 18:44:50;;;;;;;28.97;13.43;;;6.50;99.90;;;;;;6186633;23;20158;-86